sensor_id;sensor_type;location;lat;lon;timestamp;P1;durP1;ratioP1;P2;durP2;ratioP2
73253;SDS011;61474;50.834;4.552;2022-08-19T00:01:41;12.63;;;11.20;;
73253;SDS011;61474;50.834;4.552;2022-08-19T00:04:10;12.05;;;10.90;;
73253;SDS011;61474;50.834;4.552;2022-08-19T00:06:37;12.73;;;11.20;;
73253;SDS011;61474;50.834;4.552;2022-08-19T00:09:05;14.88;;;11.52;;
73253;SDS011;61474;50.834;4.552;2022-08-19T00:11:33;12.27;;;11.07;;
73253;SDS011;61474;50.834;4.552;2022-08-19T00:14:00;12.68;;;11.38;;
73253;SDS011;61474;50.834;4.552;2022-08-19T00:16:26;10.98;;;9.82;;
73253;SDS011;61474;50.834;4.552;2022-08-19T00:18:55;11.85;;;10.73;;
73253;SDS011;61474;50.834;4.552;2022-08-19T00:21:21;15.45;;;10.73;;
73253;SDS011;61474;50.834;4.552;2022-08-19T00:23:48;11.23;;;10.13;;
73253;SDS011;61474;50.834;4.552;2022-08-19T00:26:13;14.40;;;11.75;;
73253;SDS011;61474;50.834;4.552;2022-08-19T00:28:39;16.95;;;12.32;;
73253;SDS011;61474;50.834;4.552;2022-08-19T00:31:05;15.70;;;12.57;;
73253;SDS011;61474;50.834;4.552;2022-08-19T00:33:32;12.65;;;11.48;;
73253;SDS011;61474;50.834;4.552;2022-08-19T00:35:59;12.10;;;10.90;;
73253;SDS011;61474;50.834;4.552;2022-08-19T00:38:25;16.33;;;11.82;;
73253;SDS011;61474;50.834;4.552;2022-08-19T00:40:51;11.45;;;10.35;;
73253;SDS011;61474;50.834;4.552;2022-08-19T00:43:21;12.13;;;10.93;;
73253;SDS011;61474;50.834;4.552;2022-08-19T00:45:48;11.85;;;10.63;;
73253;SDS011;61474;50.834;4.552;2022-08-19T00:48:15;12.90;;;11.55;;
73253;SDS011;61474;50.834;4.552;2022-08-19T00:50:42;15.13;;;13.77;;
73253;SDS011;61474;50.834;4.552;2022-08-19T00:53:12;15.45;;;11.15;;
73253;SDS011;61474;50.834;4.552;2022-08-19T00:55:42;11.55;;;10.18;;
73253;SDS011;61474;50.834;4.552;2022-08-19T00:58:15;13.00;;;11.95;;
73253;SDS011;61474;50.834;4.552;2022-08-19T01:00:42;12.30;;;11.10;;
73253;SDS011;61474;50.834;4.552;2022-08-19T01:03:10;12.23;;;10.82;;
73253;SDS011;61474;50.834;4.552;2022-08-19T01:05:37;11.38;;;10.38;;
73253;SDS011;61474;50.834;4.552;2022-08-19T01:08:07;16.33;;;10.85;;
73253;SDS011;61474;50.834;4.552;2022-08-19T01:10:36;15.55;;;12.07;;
73253;SDS011;61474;50.834;4.552;2022-08-19T01:13:04;11.35;;;10.35;;
73253;SDS011;61474;50.834;4.552;2022-08-19T01:15:31;12.30;;;11.10;;
73253;SDS011;61474;50.834;4.552;2022-08-19T01:18:04;12.02;;;10.85;;
73253;SDS011;61474;50.834;4.552;2022-08-19T01:20:33;12.40;;;11.30;;
73253;SDS011;61474;50.834;4.552;2022-08-19T01:22:59;11.88;;;10.77;;
73253;SDS011;61474;50.834;4.552;2022-08-19T01:25:33;12.48;;;11.27;;
73253;SDS011;61474;50.834;4.552;2022-08-19T01:28:15;14.18;;;11.55;;
73253;SDS011;61474;50.834;4.552;2022-08-19T01:30:42;11.32;;;10.23;;
73253;SDS011;61474;50.834;4.552;2022-08-19T01:33:08;12.20;;;11.02;;
73253;SDS011;61474;50.834;4.552;2022-08-19T01:35:34;11.98;;;10.77;;
73253;SDS011;61474;50.834;4.552;2022-08-19T01:38:03;11.90;;;10.73;;
73253;SDS011;61474;50.834;4.552;2022-08-19T01:40:32;12.43;;;11.38;;
73253;SDS011;61474;50.834;4.552;2022-08-19T01:43:00;11.23;;;10.10;;
73253;SDS011;61474;50.834;4.552;2022-08-19T01:45:27;12.70;;;11.48;;
73253;SDS011;61474;50.834;4.552;2022-08-19T01:47:55;11.82;;;10.57;;
73253;SDS011;61474;50.834;4.552;2022-08-19T01:50:20;14.27;;;11.43;;
73253;SDS011;61474;50.834;4.552;2022-08-19T01:52:46;10.88;;;9.80;;
73253;SDS011;61474;50.834;4.552;2022-08-19T01:55:13;11.63;;;10.27;;
73253;SDS011;61474;50.834;4.552;2022-08-19T01:57:42;11.50;;;10.40;;
73253;SDS011;61474;50.834;4.552;2022-08-19T02:00:14;11.80;;;10.63;;
73253;SDS011;61474;50.834;4.552;2022-08-19T02:02:42;11.60;;;10.40;;
73253;SDS011;61474;50.834;4.552;2022-08-19T02:05:08;11.80;;;10.80;;
73253;SDS011;61474;50.834;4.552;2022-08-19T02:07:34;11.85;;;10.75;;
73253;SDS011;61474;50.834;4.552;2022-08-19T02:10:02;12.20;;;11.07;;
73253;SDS011;61474;50.834;4.552;2022-08-19T02:12:29;10.43;;;9.43;;
73253;SDS011;61474;50.834;4.552;2022-08-19T02:14:55;12.30;;;10.82;;
73253;SDS011;61474;50.834;4.552;2022-08-19T02:17:20;14.98;;;10.88;;
73253;SDS011;61474;50.834;4.552;2022-08-19T02:19:46;12.18;;;10.90;;
73253;SDS011;61474;50.834;4.552;2022-08-19T02:22:12;11.60;;;10.50;;
73253;SDS011;61474;50.834;4.552;2022-08-19T02:24:38;12.75;;;11.45;;
73253;SDS011;61474;50.834;4.552;2022-08-19T02:27:04;12.20;;;11.07;;
73253;SDS011;61474;50.834;4.552;2022-08-19T02:29:30;12.13;;;10.93;;
73253;SDS011;61474;50.834;4.552;2022-08-19T02:31:56;16.23;;;12.38;;
73253;SDS011;61474;50.834;4.552;2022-08-19T02:34:21;13.68;;;11.60;;
73253;SDS011;61474;50.834;4.552;2022-08-19T02:36:47;11.80;;;10.70;;
73253;SDS011;61474;50.834;4.552;2022-08-19T02:39:12;12.05;;;10.95;;
73253;SDS011;61474;50.834;4.552;2022-08-19T02:41:38;10.95;;;10.05;;
73253;SDS011;61474;50.834;4.552;2022-08-19T02:44:04;12.55;;;11.35;;
73253;SDS011;61474;50.834;4.552;2022-08-19T02:46:30;14.15;;;10.57;;
73253;SDS011;61474;50.834;4.552;2022-08-19T02:48:59;11.32;;;9.95;;
73253;SDS011;61474;50.834;4.552;2022-08-19T02:51:31;14.48;;;12.02;;
73253;SDS011;61474;50.834;4.552;2022-08-19T02:53:59;12.45;;;10.20;;
73253;SDS011;61474;50.834;4.552;2022-08-19T02:56:25;16.92;;;10.70;;
73253;SDS011;61474;50.834;4.552;2022-08-19T02:58:52;14.18;;;10.05;;
73253;SDS011;61474;50.834;4.552;2022-08-19T03:01:23;12.70;;;11.32;;
73253;SDS011;61474;50.834;4.552;2022-08-19T03:03:57;13.38;;;11.32;;
73253;SDS011;61474;50.834;4.552;2022-08-19T03:06:24;14.43;;;12.55;;
73253;SDS011;61474;50.834;4.552;2022-08-19T03:08:50;12.40;;;9.63;;
73253;SDS011;61474;50.834;4.552;2022-08-19T03:11:18;16.15;;;11.32;;
73253;SDS011;61474;50.834;4.552;2022-08-19T03:13:45;12.13;;;10.27;;
73253;SDS011;61474;50.834;4.552;2022-08-19T03:16:14;13.75;;;12.30;;
73253;SDS011;61474;50.834;4.552;2022-08-19T03:18:41;10.73;;;9.73;;
73253;SDS011;61474;50.834;4.552;2022-08-19T03:21:06;11.25;;;10.25;;
73253;SDS011;61474;50.834;4.552;2022-08-19T03:23:32;11.98;;;10.52;;
73253;SDS011;61474;50.834;4.552;2022-08-19T03:25:58;11.15;;;10.15;;
73253;SDS011;61474;50.834;4.552;2022-08-19T03:28:23;12.02;;;10.82;;
73253;SDS011;61474;50.834;4.552;2022-08-19T03:31:02;11.20;;;10.10;;
73253;SDS011;61474;50.834;4.552;2022-08-19T03:33:32;10.07;;;9.00;;
73253;SDS011;61474;50.834;4.552;2022-08-19T03:36:06;11.63;;;10.43;;
73253;SDS011;61474;50.834;4.552;2022-08-19T03:38:38;12.40;;;9.40;;
73253;SDS011;61474;50.834;4.552;2022-08-19T03:41:13;17.48;;;11.30;;
73253;SDS011;61474;50.834;4.552;2022-08-19T03:43:42;11.48;;;10.27;;
73253;SDS011;61474;50.834;4.552;2022-08-19T03:46:12;11.68;;;9.85;;
73253;SDS011;61474;50.834;4.552;2022-08-19T03:48:40;11.30;;;10.23;;
73253;SDS011;61474;50.834;4.552;2022-08-19T03:51:07;10.38;;;9.40;;
73253;SDS011;61474;50.834;4.552;2022-08-19T03:53:40;12.57;;;10.82;;
73253;SDS011;61474;50.834;4.552;2022-08-19T03:56:05;11.30;;;10.18;;
73253;SDS011;61474;50.834;4.552;2022-08-19T03:58:34;12.18;;;10.98;;
73253;SDS011;61474;50.834;4.552;2022-08-19T04:01:00;11.18;;;10.07;;
73253;SDS011;61474;50.834;4.552;2022-08-19T04:03:26;11.80;;;9.82;;
73253;SDS011;61474;50.834;4.552;2022-08-19T04:05:54;11.20;;;9.88;;
73253;SDS011;61474;50.834;4.552;2022-08-19T04:08:19;12.45;;;9.60;;
73253;SDS011;61474;50.834;4.552;2022-08-19T04:10:47;13.55;;;9.52;;
73253;SDS011;61474;50.834;4.552;2022-08-19T04:13:16;14.95;;;9.70;;
73253;SDS011;61474;50.834;4.552;2022-08-19T04:15:43;11.50;;;10.18;;
73253;SDS011;61474;50.834;4.552;2022-08-19T04:18:11;12.10;;;9.25;;
73253;SDS011;61474;50.834;4.552;2022-08-19T04:20:39;10.93;;;9.98;;
73253;SDS011;61474;50.834;4.552;2022-08-19T04:23:05;12.60;;;10.45;;
73253;SDS011;61474;50.834;4.552;2022-08-19T04:25:35;12.02;;;7.88;;
73253;SDS011;61474;50.834;4.552;2022-08-19T04:28:02;10.57;;;9.63;;
73253;SDS011;61474;50.834;4.552;2022-08-19T04:30:28;8.63;;;7.75;;
73253;SDS011;61474;50.834;4.552;2022-08-19T04:32:54;10.27;;;9.27;;
73253;SDS011;61474;50.834;4.552;2022-08-19T04:35:19;10.35;;;9.38;;
73253;SDS011;61474;50.834;4.552;2022-08-19T04:37:45;8.98;;;8.07;;
73253;SDS011;61474;50.834;4.552;2022-08-19T04:40:10;11.05;;;9.95;;
73253;SDS011;61474;50.834;4.552;2022-08-19T04:42:55;10.73;;;9.68;;
73253;SDS011;61474;50.834;4.552;2022-08-19T04:45:21;12.05;;;9.20;;
73253;SDS011;61474;50.834;4.552;2022-08-19T04:47:47;9.73;;;8.48;;
73253;SDS011;61474;50.834;4.552;2022-08-19T04:50:12;9.32;;;8.52;;
73253;SDS011;61474;50.834;4.552;2022-08-19T04:52:38;9.55;;;8.65;;
73253;SDS011;61474;50.834;4.552;2022-08-19T04:55:08;11.68;;;9.32;;
73253;SDS011;61474;50.834;4.552;2022-08-19T04:57:35;11.20;;;9.07;;
73253;SDS011;61474;50.834;4.552;2022-08-19T05:00:05;10.00;;;8.75;;
73253;SDS011;61474;50.834;4.552;2022-08-19T05:02:32;9.52;;;8.63;;
73253;SDS011;61474;50.834;4.552;2022-08-19T05:04:58;9.45;;;8.45;;
73253;SDS011;61474;50.834;4.552;2022-08-19T05:07:25;9.45;;;8.45;;
73253;SDS011;61474;50.834;4.552;2022-08-19T05:09:51;10.02;;;8.40;;
73253;SDS011;61474;50.834;4.552;2022-08-19T05:12:17;8.57;;;7.78;;
73253;SDS011;61474;50.834;4.552;2022-08-19T05:14:43;9.73;;;8.73;;
73253;SDS011;61474;50.834;4.552;2022-08-19T05:17:10;9.00;;;8.15;;
73253;SDS011;61474;50.834;4.552;2022-08-19T05:19:36;8.90;;;7.53;;
73253;SDS011;61474;50.834;4.552;2022-08-19T05:22:20;8.93;;;8.02;;
73253;SDS011;61474;50.834;4.552;2022-08-19T05:25:00;10.00;;;8.50;;
73253;SDS011;61474;50.834;4.552;2022-08-19T05:27:28;9.00;;;8.15;;
73253;SDS011;61474;50.834;4.552;2022-08-19T05:29:53;9.95;;;8.98;;
73253;SDS011;61474;50.834;4.552;2022-08-19T05:32:19;9.80;;;8.13;;
73253;SDS011;61474;50.834;4.552;2022-08-19T05:34:46;11.90;;;7.72;;
73253;SDS011;61474;50.834;4.552;2022-08-19T05:37:12;10.70;;;9.10;;
73253;SDS011;61474;50.834;4.552;2022-08-19T05:39:37;7.97;;;7.07;;
73253;SDS011;61474;50.834;4.552;2022-08-19T05:42:07;12.00;;;7.63;;
73253;SDS011;61474;50.834;4.552;2022-08-19T05:44:36;8.00;;;7.30;;
73253;SDS011;61474;50.834;4.552;2022-08-19T05:47:04;8.90;;;8.07;;
73253;SDS011;61474;50.834;4.552;2022-08-19T05:49:32;7.75;;;7.05;;
73253;SDS011;61474;50.834;4.552;2022-08-19T05:51:58;8.13;;;7.35;;
73253;SDS011;61474;50.834;4.552;2022-08-19T05:54:29;7.88;;;7.10;;
73253;SDS011;61474;50.834;4.552;2022-08-19T05:56:55;7.35;;;6.63;;
73253;SDS011;61474;50.834;4.552;2022-08-19T05:59:21;8.57;;;7.28;;
73253;SDS011;61474;50.834;4.552;2022-08-19T06:01:49;10.57;;;7.43;;
73253;SDS011;61474;50.834;4.552;2022-08-19T06:04:16;9.13;;;8.15;;
73253;SDS011;61474;50.834;4.552;2022-08-19T06:06:43;11.65;;;7.60;;
73253;SDS011;61474;50.834;4.552;2022-08-19T06:09:11;7.93;;;7.05;;
73253;SDS011;61474;50.834;4.552;2022-08-19T06:11:38;9.80;;;8.13;;
73253;SDS011;61474;50.834;4.552;2022-08-19T06:14:06;8.57;;;7.32;;
73253;SDS011;61474;50.834;4.552;2022-08-19T06:16:35;11.20;;;8.18;;
73253;SDS011;61474;50.834;4.552;2022-08-19T06:19:04;8.65;;;7.72;;
73253;SDS011;61474;50.834;4.552;2022-08-19T06:21:32;11.25;;;8.00;;
73253;SDS011;61474;50.834;4.552;2022-08-19T06:23:58;8.60;;;7.80;;
73253;SDS011;61474;50.834;4.552;2022-08-19T06:26:24;8.75;;;7.30;;
73253;SDS011;61474;50.834;4.552;2022-08-19T06:28:51;7.72;;;6.97;;
73253;SDS011;61474;50.834;4.552;2022-08-19T06:31:17;7.88;;;7.07;;
73253;SDS011;61474;50.834;4.552;2022-08-19T06:33:45;8.73;;;7.35;;
73253;SDS011;61474;50.834;4.552;2022-08-19T06:36:16;8.75;;;7.45;;
73253;SDS011;61474;50.834;4.552;2022-08-19T06:39:02;6.93;;;6.28;;
73253;SDS011;61474;50.834;4.552;2022-08-19T06:41:37;8.55;;;6.95;;
73253;SDS011;61474;50.834;4.552;2022-08-19T06:44:05;10.00;;;7.78;;
73253;SDS011;61474;50.834;4.552;2022-08-19T06:46:30;9.40;;;7.82;;
73253;SDS011;61474;50.834;4.552;2022-08-19T06:48:57;11.77;;;7.07;;
73253;SDS011;61474;50.834;4.552;2022-08-19T06:51:23;10.57;;;7.03;;
73253;SDS011;61474;50.834;4.552;2022-08-19T06:53:49;7.45;;;6.75;;
73253;SDS011;61474;50.834;4.552;2022-08-19T06:56:17;7.20;;;6.18;;
73253;SDS011;61474;50.834;4.552;2022-08-19T06:58:46;11.98;;;7.45;;
73253;SDS011;61474;50.834;4.552;2022-08-19T07:01:13;8.60;;;7.75;;
73253;SDS011;61474;50.834;4.552;2022-08-19T07:03:39;8.13;;;7.15;;
73253;SDS011;61474;50.834;4.552;2022-08-19T07:06:05;7.45;;;6.70;;
73253;SDS011;61474;50.834;4.552;2022-08-19T07:08:33;7.85;;;7.03;;
73253;SDS011;61474;50.834;4.552;2022-08-19T07:10:58;7.47;;;6.68;;
73253;SDS011;61474;50.834;4.552;2022-08-19T07:13:24;7.35;;;6.65;;
73253;SDS011;61474;50.834;4.552;2022-08-19T07:15:50;9.77;;;6.50;;
73253;SDS011;61474;50.834;4.552;2022-08-19T07:18:17;7.15;;;6.43;;
73253;SDS011;61474;50.834;4.552;2022-08-19T07:20:45;10.02;;;6.88;;
73253;SDS011;61474;50.834;4.552;2022-08-19T07:23:11;6.97;;;6.28;;
73253;SDS011;61474;50.834;4.552;2022-08-19T07:25:37;8.15;;;6.85;;
73253;SDS011;61474;50.834;4.552;2022-08-19T07:28:03;6.82;;;6.20;;
73253;SDS011;61474;50.834;4.552;2022-08-19T07:30:30;10.00;;;6.38;;
73253;SDS011;61474;50.834;4.552;2022-08-19T07:32:56;7.97;;;6.93;;
73253;SDS011;61474;50.834;4.552;2022-08-19T07:35:22;6.68;;;6.03;;
73253;SDS011;61474;50.834;4.552;2022-08-19T07:37:48;7.72;;;6.93;;
73253;SDS011;61474;50.834;4.552;2022-08-19T07:40:14;10.10;;;7.30;;
73253;SDS011;61474;50.834;4.552;2022-08-19T07:42:40;7.10;;;5.32;;
73253;SDS011;61474;50.834;4.552;2022-08-19T07:45:07;6.95;;;6.20;;
73253;SDS011;61474;50.834;4.552;2022-08-19T07:47:33;6.93;;;6.22;;
73253;SDS011;61474;50.834;4.552;2022-08-19T07:49:59;12.15;;;5.88;;
73253;SDS011;61474;50.834;4.552;2022-08-19T07:52:24;7.07;;;6.15;;
73253;SDS011;61474;50.834;4.552;2022-08-19T07:54:50;7.63;;;5.80;;
73253;SDS011;61474;50.834;4.552;2022-08-19T07:57:15;6.65;;;5.65;;
73253;SDS011;61474;50.834;4.552;2022-08-19T07:59:41;7.68;;;6.95;;
73253;SDS011;61474;50.834;4.552;2022-08-19T08:02:07;6.50;;;5.72;;
73253;SDS011;61474;50.834;4.552;2022-08-19T08:04:33;8.30;;;5.68;;
73253;SDS011;61474;50.834;4.552;2022-08-19T08:07:18;7.75;;;5.70;;
73253;SDS011;61474;50.834;4.552;2022-08-19T08:10:03;6.68;;;6.03;;
73253;SDS011;61474;50.834;4.552;2022-08-19T08:12:33;8.95;;;6.28;;
73253;SDS011;61474;50.834;4.552;2022-08-19T08:15:05;5.70;;;4.97;;
73253;SDS011;61474;50.834;4.552;2022-08-19T08:17:34;7.38;;;6.40;;
73253;SDS011;61474;50.834;4.552;2022-08-19T08:20:01;6.50;;;5.45;;
73253;SDS011;61474;50.834;4.552;2022-08-19T08:22:31;7.28;;;5.65;;
73253;SDS011;61474;50.834;4.552;2022-08-19T08:25:16;5.40;;;4.70;;
73253;SDS011;61474;50.834;4.552;2022-08-19T08:27:45;8.65;;;5.97;;
73253;SDS011;61474;50.834;4.552;2022-08-19T08:30:16;15.82;;;4.20;;
73253;SDS011;61474;50.834;4.552;2022-08-19T08:32:43;9.77;;;5.15;;
73253;SDS011;61474;50.834;4.552;2022-08-19T08:35:11;5.53;;;4.32;;
73253;SDS011;61474;50.834;4.552;2022-08-19T08:37:39;17.50;;;5.55;;
73253;SDS011;61474;50.834;4.552;2022-08-19T08:40:05;6.35;;;4.53;;
73253;SDS011;61474;50.834;4.552;2022-08-19T08:42:39;7.10;;;5.22;;
73253;SDS011;61474;50.834;4.552;2022-08-19T08:45:16;8.82;;;4.20;;
73253;SDS011;61474;50.834;4.552;2022-08-19T08:47:43;5.20;;;4.70;;
73253;SDS011;61474;50.834;4.552;2022-08-19T08:50:17;5.43;;;4.65;;
73253;SDS011;61474;50.834;4.552;2022-08-19T08:52:51;4.97;;;4.50;;
73253;SDS011;61474;50.834;4.552;2022-08-19T08:55:21;5.50;;;4.05;;
73253;SDS011;61474;50.834;4.552;2022-08-19T09:03:25;5.97;;;5.22;;
73253;SDS011;61474;50.834;4.552;2022-08-19T09:05:58;6.47;;;5.13;;
73253;SDS011;61474;50.834;4.552;2022-08-19T09:08:37;7.40;;;4.70;;
73253;SDS011;61474;50.834;4.552;2022-08-19T09:11:06;8.23;;;4.90;;
73253;SDS011;61474;50.834;4.552;2022-08-19T09:16:20;6.63;;;4.95;;
73253;SDS011;61474;50.834;4.552;2022-08-19T09:18:52;6.18;;;4.40;;
73253;SDS011;61474;50.834;4.552;2022-08-19T09:21:23;5.57;;;5.00;;
73253;SDS011;61474;50.834;4.552;2022-08-19T09:23:50;6.55;;;5.18;;
73253;SDS011;61474;50.834;4.552;2022-08-19T09:26:18;5.70;;;4.70;;
73253;SDS011;61474;50.834;4.552;2022-08-19T09:28:47;5.80;;;4.38;;
73253;SDS011;61474;50.834;4.552;2022-08-19T09:31:16;5.65;;;4.95;;
73253;SDS011;61474;50.834;4.552;2022-08-19T09:33:47;5.55;;;4.10;;
73253;SDS011;61474;50.834;4.552;2022-08-19T09:36:13;6.47;;;5.13;;
73253;SDS011;61474;50.834;4.552;2022-08-19T09:38:41;4.82;;;4.20;;
73253;SDS011;61474;50.834;4.552;2022-08-19T09:41:08;8.55;;;5.03;;
73253;SDS011;61474;50.834;4.552;2022-08-19T09:43:38;10.25;;;4.72;;
73253;SDS011;61474;50.834;4.552;2022-08-19T09:46:06;7.00;;;5.00;;
73253;SDS011;61474;50.834;4.552;2022-08-19T09:48:34;5.35;;;4.70;;
73253;SDS011;61474;50.834;4.552;2022-08-19T09:51:07;6.22;;;4.97;;
73253;SDS011;61474;50.834;4.552;2022-08-19T09:53:40;5.97;;;4.88;;
73253;SDS011;61474;50.834;4.552;2022-08-19T09:56:06;5.13;;;4.65;;
73253;SDS011;61474;50.834;4.552;2022-08-19T09:58:33;4.95;;;4.43;;
73253;SDS011;61474;50.834;4.552;2022-08-19T10:00:59;6.50;;;5.05;;
73253;SDS011;61474;50.834;4.552;2022-08-19T10:03:27;5.60;;;4.43;;
73253;SDS011;61474;50.834;4.552;2022-08-19T10:05:54;7.32;;;4.90;;
73253;SDS011;61474;50.834;4.552;2022-08-19T10:08:29;5.50;;;4.47;;
73253;SDS011;61474;50.834;4.552;2022-08-19T10:10:56;7.05;;;4.40;;
73253;SDS011;61474;50.834;4.552;2022-08-19T10:13:23;5.85;;;4.90;;
73253;SDS011;61474;50.834;4.552;2022-08-19T10:15:51;6.68;;;4.68;;
73253;SDS011;61474;50.834;4.552;2022-08-19T10:18:19;5.10;;;4.13;;
73253;SDS011;61474;50.834;4.552;2022-08-19T10:20:46;5.18;;;4.60;;
73253;SDS011;61474;50.834;4.552;2022-08-19T10:23:13;6.55;;;4.22;;
73253;SDS011;61474;50.834;4.552;2022-08-19T10:25:40;4.78;;;4.28;;
73253;SDS011;61474;50.834;4.552;2022-08-19T10:28:06;4.93;;;4.43;;
73253;SDS011;61474;50.834;4.552;2022-08-19T10:30:32;5.10;;;4.13;;
73253;SDS011;61474;50.834;4.552;2022-08-19T10:32:58;5.68;;;5.18;;
73253;SDS011;61474;50.834;4.552;2022-08-19T10:35:24;4.60;;;4.00;;
73253;SDS011;61474;50.834;4.552;2022-08-19T10:37:52;5.40;;;4.68;;
73253;SDS011;61474;50.834;4.552;2022-08-19T10:40:18;6.28;;;5.20;;
73253;SDS011;61474;50.834;4.552;2022-08-19T10:42:43;6.00;;;5.47;;
73253;SDS011;61474;50.834;4.552;2022-08-19T10:45:09;6.18;;;5.57;;
73253;SDS011;61474;50.834;4.552;2022-08-19T10:47:35;5.88;;;4.70;;
73253;SDS011;61474;50.834;4.552;2022-08-19T10:50:01;5.93;;;5.25;;
73253;SDS011;61474;50.834;4.552;2022-08-19T10:52:47;6.07;;;4.47;;
73253;SDS011;61474;50.834;4.552;2022-08-19T10:55:14;5.53;;;4.75;;
73253;SDS011;61474;50.834;4.552;2022-08-19T10:57:58;6.00;;;5.35;;
73253;SDS011;61474;50.834;4.552;2022-08-19T11:00:24;7.65;;;5.57;;
73253;SDS011;61474;50.834;4.552;2022-08-19T11:02:50;5.65;;;5.15;;
73253;SDS011;61474;50.834;4.552;2022-08-19T11:05:16;5.90;;;5.38;;
73253;SDS011;61474;50.834;4.552;2022-08-19T11:07:42;7.68;;;6.07;;
73253;SDS011;61474;50.834;4.552;2022-08-19T11:10:10;7.30;;;6.43;;
73253;SDS011;61474;50.834;4.552;2022-08-19T11:12:37;6.88;;;6.28;;
73253;SDS011;61474;50.834;4.552;2022-08-19T11:15:05;11.02;;;7.72;;
73253;SDS011;61474;50.834;4.552;2022-08-19T11:17:32;9.90;;;6.47;;
73253;SDS011;61474;50.834;4.552;2022-08-19T11:19:58;7.05;;;6.30;;
73253;SDS011;61474;50.834;4.552;2022-08-19T11:22:27;8.00;;;6.60;;
73253;SDS011;61474;50.834;4.552;2022-08-19T11:24:53;6.93;;;6.32;;
73253;SDS011;61474;50.834;4.552;2022-08-19T11:27:20;8.15;;;7.20;;
73253;SDS011;61474;50.834;4.552;2022-08-19T11:29:45;7.20;;;6.07;;
73253;SDS011;61474;50.834;4.552;2022-08-19T11:32:11;7.78;;;6.70;;
73253;SDS011;61474;50.834;4.552;2022-08-19T11:34:37;8.05;;;7.25;;
73253;SDS011;61474;50.834;4.552;2022-08-19T11:37:03;5.22;;;4.72;;
73253;SDS011;61474;50.834;4.552;2022-08-19T11:39:31;6.55;;;5.55;;
73253;SDS011;61474;50.834;4.552;2022-08-19T11:41:58;6.75;;;6.05;;
73253;SDS011;61474;50.834;4.552;2022-08-19T11:44:26;6.63;;;5.00;;
73253;SDS011;61474;50.834;4.552;2022-08-19T11:46:52;6.57;;;5.97;;
73253;SDS011;61474;50.834;4.552;2022-08-19T11:49:18;6.10;;;5.47;;
73253;SDS011;61474;50.834;4.552;2022-08-19T11:51:46;5.57;;;4.88;;
73253;SDS011;61474;50.834;4.552;2022-08-19T11:54:13;5.95;;;5.18;;
73253;SDS011;61474;50.834;4.552;2022-08-19T11:56:41;6.63;;;5.93;;
73253;SDS011;61474;50.834;4.552;2022-08-19T11:59:07;6.38;;;5.72;;
73253;SDS011;61474;50.834;4.552;2022-08-19T12:01:33;7.03;;;5.80;;
73253;SDS011;61474;50.834;4.552;2022-08-19T12:03:59;6.13;;;5.53;;
73253;SDS011;61474;50.834;4.552;2022-08-19T12:06:26;7.25;;;4.82;;
73253;SDS011;61474;50.834;4.552;2022-08-19T12:08:57;6.03;;;5.43;;
73253;SDS011;61474;50.834;4.552;2022-08-19T12:11:24;6.68;;;6.00;;
73253;SDS011;61474;50.834;4.552;2022-08-19T12:13:50;7.65;;;5.97;;
73253;SDS011;61474;50.834;4.552;2022-08-19T12:16:18;7.65;;;5.88;;
73253;SDS011;61474;50.834;4.552;2022-08-19T12:18:45;6.57;;;5.55;;
73253;SDS011;61474;50.834;4.552;2022-08-19T12:21:16;5.63;;;4.57;;
73253;SDS011;61474;50.834;4.552;2022-08-19T12:23:46;6.75;;;5.15;;
73253;SDS011;61474;50.834;4.552;2022-08-19T12:26:13;5.80;;;5.20;;
73253;SDS011;61474;50.834;4.552;2022-08-19T12:28:39;5.72;;;5.18;;
73253;SDS011;61474;50.834;4.552;2022-08-19T12:31:04;5.57;;;4.90;;
73253;SDS011;61474;50.834;4.552;2022-08-19T12:33:31;5.90;;;5.05;;
73253;SDS011;61474;50.834;4.552;2022-08-19T12:36:04;5.82;;;5.20;;
73253;SDS011;61474;50.834;4.552;2022-08-19T12:38:32;5.20;;;4.40;;
73253;SDS011;61474;50.834;4.552;2022-08-19T12:41:01;5.43;;;4.63;;
73253;SDS011;61474;50.834;4.552;2022-08-19T12:43:31;6.10;;;4.90;;
73253;SDS011;61474;50.834;4.552;2022-08-19T12:45:58;5.22;;;4.70;;
73253;SDS011;61474;50.834;4.552;2022-08-19T12:48:24;6.72;;;5.25;;
73253;SDS011;61474;50.834;4.552;2022-08-19T12:50:49;7.45;;;5.82;;
73253;SDS011;61474;50.834;4.552;2022-08-19T12:53:15;5.00;;;4.40;;
73253;SDS011;61474;50.834;4.552;2022-08-19T12:55:41;5.82;;;5.28;;
73253;SDS011;61474;50.834;4.552;2022-08-19T12:58:08;5.97;;;4.32;;
73253;SDS011;61474;50.834;4.552;2022-08-19T13:00:33;5.10;;;4.38;;
73253;SDS011;61474;50.834;4.552;2022-08-19T13:02:59;5.35;;;4.47;;
73253;SDS011;61474;50.834;4.552;2022-08-19T13:05:26;4.55;;;4.15;;
73253;SDS011;61474;50.834;4.552;2022-08-19T13:07:55;4.40;;;4.00;;
73253;SDS011;61474;50.834;4.552;2022-08-19T13:10:22;6.03;;;5.07;;
73253;SDS011;61474;50.834;4.552;2022-08-19T13:12:50;4.50;;;4.10;;
73253;SDS011;61474;50.834;4.552;2022-08-19T13:15:17;4.93;;;3.88;;
73253;SDS011;61474;50.834;4.552;2022-08-19T13:17:47;5.85;;;4.95;;
73253;SDS011;61474;50.834;4.552;2022-08-19T13:20:15;4.30;;;3.90;;
73253;SDS011;61474;50.834;4.552;2022-08-19T13:22:42;5.65;;;5.05;;
73253;SDS011;61474;50.834;4.552;2022-08-19T13:25:10;6.13;;;4.97;;
73253;SDS011;61474;50.834;4.552;2022-08-19T13:27:36;5.82;;;3.67;;
73253;SDS011;61474;50.834;4.552;2022-08-19T13:30:03;6.25;;;4.07;;
73253;SDS011;61474;50.834;4.552;2022-08-19T13:32:48;4.85;;;4.03;;
73253;SDS011;61474;50.834;4.552;2022-08-19T13:35:32;4.72;;;4.05;;
73253;SDS011;61474;50.834;4.552;2022-08-19T13:37:58;4.55;;;3.97;;
73253;SDS011;61474;50.834;4.552;2022-08-19T13:40:24;6.32;;;4.43;;
73253;SDS011;61474;50.834;4.552;2022-08-19T13:42:51;5.60;;;5.10;;
73253;SDS011;61474;50.834;4.552;2022-08-19T13:45:19;4.15;;;3.75;;
73253;SDS011;61474;50.834;4.552;2022-08-19T13:47:47;6.07;;;3.70;;
73253;SDS011;61474;50.834;4.552;2022-08-19T13:50:15;5.47;;;4.63;;
73253;SDS011;61474;50.834;4.552;2022-08-19T13:52:43;5.30;;;4.43;;
73253;SDS011;61474;50.834;4.552;2022-08-19T13:55:09;5.38;;;4.88;;
73253;SDS011;61474;50.834;4.552;2022-08-19T13:57:36;5.53;;;4.35;;
73253;SDS011;61474;50.834;4.552;2022-08-19T14:00:07;5.50;;;4.68;;
73253;SDS011;61474;50.834;4.552;2022-08-19T14:02:36;4.70;;;3.80;;
73253;SDS011;61474;50.834;4.552;2022-08-19T14:05:03;5.60;;;5.00;;
73253;SDS011;61474;50.834;4.552;2022-08-19T14:07:30;12.77;;;4.43;;
73253;SDS011;61474;50.834;4.552;2022-08-19T14:09:55;4.65;;;4.13;;
73253;SDS011;61474;50.834;4.552;2022-08-19T14:12:21;5.28;;;4.50;;
73253;SDS011;61474;50.834;4.552;2022-08-19T14:14:47;4.60;;;3.97;;
73253;SDS011;61474;50.834;4.552;2022-08-19T14:17:13;4.95;;;4.35;;
73253;SDS011;61474;50.834;4.552;2022-08-19T14:19:39;5.75;;;4.75;;
73253;SDS011;61474;50.834;4.552;2022-08-19T14:22:05;4.97;;;3.95;;
73253;SDS011;61474;50.834;4.552;2022-08-19T14:24:31;5.85;;;4.45;;
73253;SDS011;61474;50.834;4.552;2022-08-19T14:26:59;4.60;;;4.03;;
73253;SDS011;61474;50.834;4.552;2022-08-19T14:29:26;5.32;;;4.10;;
73253;SDS011;61474;50.834;4.552;2022-08-19T14:31:53;5.70;;;4.05;;
73253;SDS011;61474;50.834;4.552;2022-08-19T14:34:21;5.78;;;4.35;;
73253;SDS011;61474;50.834;4.552;2022-08-19T14:36:47;4.93;;;3.85;;
73253;SDS011;61474;50.834;4.552;2022-08-19T14:39:12;5.53;;;3.83;;
73253;SDS011;61474;50.834;4.552;2022-08-19T14:41:39;5.70;;;3.25;;
73253;SDS011;61474;50.834;4.552;2022-08-19T14:44:06;5.20;;;3.97;;
73253;SDS011;61474;50.834;4.552;2022-08-19T14:46:32;4.55;;;3.28;;
73253;SDS011;61474;50.834;4.552;2022-08-19T14:48:57;4.18;;;3.35;;
73253;SDS011;61474;50.834;4.552;2022-08-19T14:51:23;3.70;;;3.30;;